sensor_id;sensor_type;location;lat;lon;timestamp;P1;durP1;ratioP1;P2;durP2;ratioP2
21326;SDS011;10822;51.532;6.770;2024-01-30T00:01:28;12.23;;;6.72;;
21326;SDS011;10822;51.532;6.770;2024-01-30T00:03:54;9.73;;;6.68;;
21326;SDS011;10822;51.532;6.770;2024-01-30T00:06:20;8.52;;;6.63;;
21326;SDS011;10822;51.532;6.770;2024-01-30T00:08:46;8.73;;;6.28;;
21326;SDS011;10822;51.532;6.770;2024-01-30T00:11:14;8.93;;;6.45;;
21326;SDS011;10822;51.532;6.770;2024-01-30T00:13:40;9.15;;;6.35;;
21326;SDS011;10822;51.532;6.770;2024-01-30T00:16:06;10.27;;;6.70;;
21326;SDS011;10822;51.532;6.770;2024-01-30T00:18:32;8.88;;;6.78;;
21326;SDS011;10822;51.532;6.770;2024-01-30T00:20:58;9.30;;;6.35;;
21326;SDS011;10822;51.532;6.770;2024-01-30T00:23:24;11.93;;;7.03;;
21326;SDS011;10822;51.532;6.770;2024-01-30T00:25:50;9.07;;;6.10;;
21326;SDS011;10822;51.532;6.770;2024-01-30T00:28:16;9.90;;;6.65;;
21326;SDS011;10822;51.532;6.770;2024-01-30T00:30:42;10.82;;;6.40;;
21326;SDS011;10822;51.532;6.770;2024-01-30T00:33:09;10.68;;;6.90;;
21326;SDS011;10822;51.532;6.770;2024-01-30T00:35:35;9.45;;;7.00;;
21326;SDS011;10822;51.532;6.770;2024-01-30T00:38:01;12.40;;;7.13;;
21326;SDS011;10822;51.532;6.770;2024-01-30T00:40:27;10.10;;;7.43;;
21326;SDS011;10822;51.532;6.770;2024-01-30T00:42:53;11.60;;;7.22;;
21326;SDS011;10822;51.532;6.770;2024-01-30T00:45:19;11.10;;;7.13;;
21326;SDS011;10822;51.532;6.770;2024-01-30T00:47:45;10.50;;;6.68;;
21326;SDS011;10822;51.532;6.770;2024-01-30T00:50:11;13.48;;;8.05;;
21326;SDS011;10822;51.532;6.770;2024-01-30T00:52:37;10.35;;;6.93;;
21326;SDS011;10822;51.532;6.770;2024-01-30T00:55:04;10.45;;;6.93;;
21326;SDS011;10822;51.532;6.770;2024-01-30T00:57:30;11.00;;;6.80;;
21326;SDS011;10822;51.532;6.770;2024-01-30T00:59:56;11.65;;;7.63;;
21326;SDS011;10822;51.532;6.770;2024-01-30T01:02:22;11.45;;;6.68;;
21326;SDS011;10822;51.532;6.770;2024-01-30T01:04:48;13.32;;;7.60;;
21326;SDS011;10822;51.532;6.770;2024-01-30T01:07:15;9.95;;;6.80;;
21326;SDS011;10822;51.532;6.770;2024-01-30T01:09:40;10.52;;;7.25;;
21326;SDS011;10822;51.532;6.770;2024-01-30T01:12:06;9.23;;;6.25;;
21326;SDS011;10822;51.532;6.770;2024-01-30T01:14:32;11.80;;;7.28;;
21326;SDS011;10822;51.532;6.770;2024-01-30T01:16:58;13.07;;;7.15;;
21326;SDS011;10822;51.532;6.770;2024-01-30T01:19:24;10.18;;;7.18;;
21326;SDS011;10822;51.532;6.770;2024-01-30T01:21:50;11.90;;;7.53;;
21326;SDS011;10822;51.532;6.770;2024-01-30T01:24:16;10.65;;;6.90;;
21326;SDS011;10822;51.532;6.770;2024-01-30T01:26:42;12.95;;;7.30;;
21326;SDS011;10822;51.532;6.770;2024-01-30T01:29:08;11.45;;;7.13;;
21326;SDS011;10822;51.532;6.770;2024-01-30T01:31:38;9.80;;;6.95;;
21326;SDS011;10822;51.532;6.770;2024-01-30T01:34:08;10.77;;;7.60;;
21326;SDS011;10822;51.532;6.770;2024-01-30T01:36:34;11.50;;;6.90;;
21326;SDS011;10822;51.532;6.770;2024-01-30T01:39:00;11.00;;;7.38;;
21326;SDS011;10822;51.532;6.770;2024-01-30T01:41:29;12.40;;;7.03;;
21326;SDS011;10822;51.532;6.770;2024-01-30T01:43:56;10.98;;;7.35;;
21326;SDS011;10822;51.532;6.770;2024-01-30T01:46:22;12.75;;;7.90;;
21326;SDS011;10822;51.532;6.770;2024-01-30T01:48:48;9.95;;;6.85;;
21326;SDS011;10822;51.532;6.770;2024-01-30T01:51:14;13.20;;;7.90;;
21326;SDS011;10822;51.532;6.770;2024-01-30T01:53:41;13.13;;;7.28;;
21326;SDS011;10822;51.532;6.770;2024-01-30T01:56:07;13.10;;;7.80;;
21326;SDS011;10822;51.532;6.770;2024-01-30T01:58:33;11.02;;;6.82;;
21326;SDS011;10822;51.532;6.770;2024-01-30T02:00:59;10.00;;;7.20;;
21326;SDS011;10822;51.532;6.770;2024-01-30T02:03:25;9.73;;;7.18;;
21326;SDS011;10822;51.532;6.770;2024-01-30T02:05:51;10.60;;;7.18;;
21326;SDS011;10822;51.532;6.770;2024-01-30T02:08:17;10.25;;;7.15;;
21326;SDS011;10822;51.532;6.770;2024-01-30T02:10:43;11.02;;;7.72;;
21326;SDS011;10822;51.532;6.770;2024-01-30T02:13:09;10.05;;;7.18;;
21326;SDS011;10822;51.532;6.770;2024-01-30T02:15:35;12.45;;;7.43;;
21326;SDS011;10822;51.532;6.770;2024-01-30T02:18:01;10.98;;;7.63;;
21326;SDS011;10822;51.532;6.770;2024-01-30T02:20:27;10.40;;;7.25;;
21326;SDS011;10822;51.532;6.770;2024-01-30T02:22:56;11.55;;;7.13;;
21326;SDS011;10822;51.532;6.770;2024-01-30T02:25:42;15.68;;;8.18;;
21326;SDS011;10822;51.532;6.770;2024-01-30T02:28:14;14.80;;;7.20;;
21326;SDS011;10822;51.532;6.770;2024-01-30T02:30:42;11.70;;;7.15;;
21326;SDS011;10822;51.532;6.770;2024-01-30T02:33:08;12.70;;;7.60;;
21326;SDS011;10822;51.532;6.770;2024-01-30T02:35:34;11.90;;;7.70;;
21326;SDS011;10822;51.532;6.770;2024-01-30T02:38:00;9.40;;;6.38;;
21326;SDS011;10822;51.532;6.770;2024-01-30T02:40:26;12.55;;;7.70;;
21326;SDS011;10822;51.532;6.770;2024-01-30T02:42:52;11.30;;;7.28;;
21326;SDS011;10822;51.532;6.770;2024-01-30T02:45:18;11.45;;;7.55;;
21326;SDS011;10822;51.532;6.770;2024-01-30T02:47:45;8.63;;;6.50;;
21326;SDS011;10822;51.532;6.770;2024-01-30T02:50:11;10.52;;;6.90;;
21326;SDS011;10822;51.532;6.770;2024-01-30T02:52:37;10.57;;;7.40;;
21326;SDS011;10822;51.532;6.770;2024-01-30T02:55:03;14.32;;;7.78;;
21326;SDS011;10822;51.532;6.770;2024-01-30T02:57:29;11.43;;;7.22;;
21326;SDS011;10822;51.532;6.770;2024-01-30T02:59:55;9.88;;;6.95;;
21326;SDS011;10822;51.532;6.770;2024-01-30T03:02:21;10.70;;;7.45;;
21326;SDS011;10822;51.532;6.770;2024-01-30T03:04:47;10.93;;;6.68;;
21326;SDS011;10822;51.532;6.770;2024-01-30T03:07:13;13.07;;;7.80;;
21326;SDS011;10822;51.532;6.770;2024-01-30T03:09:40;11.02;;;7.03;;
21326;SDS011;10822;51.532;6.770;2024-01-30T03:12:08;12.40;;;7.10;;
21326;SDS011;10822;51.532;6.770;2024-01-30T03:14:33;11.88;;;7.78;;
21326;SDS011;10822;51.532;6.770;2024-01-30T03:17:00;11.50;;;6.88;;
21326;SDS011;10822;51.532;6.770;2024-01-30T03:19:25;12.35;;;7.00;;
21326;SDS011;10822;51.532;6.770;2024-01-30T03:21:52;11.18;;;7.25;;
21326;SDS011;10822;51.532;6.770;2024-01-30T03:24:18;10.93;;;7.28;;
21326;SDS011;10822;51.532;6.770;2024-01-30T03:26:44;9.43;;;7.18;;
21326;SDS011;10822;51.532;6.770;2024-01-30T03:29:10;11.90;;;7.05;;
21326;SDS011;10822;51.532;6.770;2024-01-30T03:31:36;11.25;;;7.25;;
21326;SDS011;10822;51.532;6.770;2024-01-30T03:34:02;13.35;;;7.60;;
21326;SDS011;10822;51.532;6.770;2024-01-30T03:36:28;12.38;;;7.50;;
21326;SDS011;10822;51.532;6.770;2024-01-30T03:38:54;11.02;;;7.28;;
21326;SDS011;10822;51.532;6.770;2024-01-30T03:41:20;19.70;;;9.88;;
21326;SDS011;10822;51.532;6.770;2024-01-30T03:43:46;15.75;;;8.00;;
21326;SDS011;10822;51.532;6.770;2024-01-30T03:46:13;12.70;;;7.95;;
21326;SDS011;10822;51.532;6.770;2024-01-30T03:48:39;11.30;;;7.20;;
21326;SDS011;10822;51.532;6.770;2024-01-30T03:51:05;11.38;;;6.53;;
21326;SDS011;10822;51.532;6.770;2024-01-30T03:53:31;12.00;;;6.95;;
21326;SDS011;10822;51.532;6.770;2024-01-30T03:55:57;11.10;;;7.25;;
21326;SDS011;10822;51.532;6.770;2024-01-30T03:58:23;11.43;;;7.07;;
21326;SDS011;10822;51.532;6.770;2024-01-30T04:00:49;9.48;;;7.00;;
21326;SDS011;10822;51.532;6.770;2024-01-30T04:03:15;12.00;;;7.30;;
21326;SDS011;10822;51.532;6.770;2024-01-30T04:05:41;12.27;;;7.10;;
21326;SDS011;10822;51.532;6.770;2024-01-30T04:08:07;10.07;;;6.70;;
21326;SDS011;10822;51.532;6.770;2024-01-30T04:10:33;11.75;;;7.40;;
21326;SDS011;10822;51.532;6.770;2024-01-30T04:13:00;12.88;;;6.95;;
21326;SDS011;10822;51.532;6.770;2024-01-30T04:15:26;9.50;;;6.18;;
21326;SDS011;10822;51.532;6.770;2024-01-30T04:17:53;9.35;;;6.60;;
21326;SDS011;10822;51.532;6.770;2024-01-30T04:20:18;10.95;;;6.78;;
21326;SDS011;10822;51.532;6.770;2024-01-30T04:22:45;10.95;;;7.38;;
21326;SDS011;10822;51.532;6.770;2024-01-30T04:25:11;14.13;;;7.80;;
21326;SDS011;10822;51.532;6.770;2024-01-30T04:27:37;13.80;;;7.88;;
21326;SDS011;10822;51.532;6.770;2024-01-30T04:30:03;11.35;;;7.60;;
21326;SDS011;10822;51.532;6.770;2024-01-30T04:32:29;14.75;;;7.40;;
21326;SDS011;10822;51.532;6.770;2024-01-30T04:34:55;11.10;;;6.78;;
21326;SDS011;10822;51.532;6.770;2024-01-30T04:37:21;15.00;;;7.40;;
21326;SDS011;10822;51.532;6.770;2024-01-30T04:39:47;11.75;;;7.50;;
21326;SDS011;10822;51.532;6.770;2024-01-30T04:42:13;11.25;;;6.90;;
21326;SDS011;10822;51.532;6.770;2024-01-30T04:44:39;11.00;;;7.13;;
21326;SDS011;10822;51.532;6.770;2024-01-30T04:47:05;8.90;;;6.82;;
21326;SDS011;10822;51.532;6.770;2024-01-30T04:49:34;12.70;;;7.72;;
21326;SDS011;10822;51.532;6.770;2024-01-30T04:52:00;13.00;;;7.40;;
21326;SDS011;10822;51.532;6.770;2024-01-30T04:54:26;12.07;;;6.95;;
21326;SDS011;10822;51.532;6.770;2024-01-30T04:56:52;13.10;;;7.60;;
21326;SDS011;10822;51.532;6.770;2024-01-30T04:59:18;11.98;;;7.47;;
21326;SDS011;10822;51.532;6.770;2024-01-30T05:01:44;10.18;;;6.90;;
21326;SDS011;10822;51.532;6.770;2024-01-30T05:04:10;11.98;;;7.10;;
21326;SDS011;10822;51.532;6.770;2024-01-30T05:06:36;14.77;;;7.55;;
21326;SDS011;10822;51.532;6.770;2024-01-30T05:09:02;11.60;;;7.63;;
21326;SDS011;10822;51.532;6.770;2024-01-30T05:11:31;10.23;;;7.65;;
21326;SDS011;10822;51.532;6.770;2024-01-30T05:14:02;11.55;;;6.72;;
21326;SDS011;10822;51.532;6.770;2024-01-30T05:16:28;11.65;;;7.20;;
21326;SDS011;10822;51.532;6.770;2024-01-30T05:18:54;14.43;;;7.63;;
21326;SDS011;10822;51.532;6.770;2024-01-30T05:21:20;13.25;;;6.97;;
21326;SDS011;10822;51.532;6.770;2024-01-30T05:23:46;10.07;;;6.55;;
21326;SDS011;10822;51.532;6.770;2024-01-30T05:26:12;9.35;;;6.57;;
21326;SDS011;10822;51.532;6.770;2024-01-30T05:28:38;10.23;;;6.95;;
21326;SDS011;10822;51.532;6.770;2024-01-30T05:31:04;10.73;;;6.60;;
21326;SDS011;10822;51.532;6.770;2024-01-30T05:33:30;9.95;;;6.53;;
21326;SDS011;10822;51.532;6.770;2024-01-30T05:35:56;10.48;;;6.75;;
21326;SDS011;10822;51.532;6.770;2024-01-30T05:38:22;10.88;;;6.35;;
21326;SDS011;10822;51.532;6.770;2024-01-30T05:40:48;12.68;;;7.13;;
21326;SDS011;10822;51.532;6.770;2024-01-30T05:43:14;12.10;;;7.25;;
21326;SDS011;10822;51.532;6.770;2024-01-30T05:45:40;10.88;;;6.65;;
21326;SDS011;10822;51.532;6.770;2024-01-30T05:48:06;9.75;;;6.82;;
21326;SDS011;10822;51.532;6.770;2024-01-30T05:50:33;11.00;;;6.88;;
21326;SDS011;10822;51.532;6.770;2024-01-30T05:52:59;9.45;;;6.47;;
21326;SDS011;10822;51.532;6.770;2024-01-30T05:55:25;10.23;;;6.10;;
21326;SDS011;10822;51.532;6.770;2024-01-30T05:57:51;11.02;;;6.47;;
21326;SDS011;10822;51.532;6.770;2024-01-30T06:00:17;9.32;;;6.22;;
21326;SDS011;10822;51.532;6.770;2024-01-30T06:02:43;11.30;;;7.00;;
21326;SDS011;10822;51.532;6.770;2024-01-30T06:05:09;11.32;;;6.97;;
21326;SDS011;10822;51.532;6.770;2024-01-30T06:07:35;10.73;;;6.60;;
21326;SDS011;10822;51.532;6.770;2024-01-30T06:10:01;11.25;;;6.85;;
21326;SDS011;10822;51.532;6.770;2024-01-30T06:12:28;10.55;;;6.72;;
21326;SDS011;10822;51.532;6.770;2024-01-30T06:14:54;10.20;;;6.47;;
21326;SDS011;10822;51.532;6.770;2024-01-30T06:17:22;11.55;;;7.22;;
21326;SDS011;10822;51.532;6.770;2024-01-30T06:19:48;10.50;;;6.28;;
21326;SDS011;10822;51.532;6.770;2024-01-30T06:22:14;12.02;;;6.93;;
21326;SDS011;10822;51.532;6.770;2024-01-30T06:24:40;9.57;;;6.15;;
21326;SDS011;10822;51.532;6.770;2024-01-30T06:27:06;12.57;;;6.93;;
21326;SDS011;10822;51.532;6.770;2024-01-30T06:29:33;10.38;;;6.63;;
21326;SDS011;10822;51.532;6.770;2024-01-30T06:31:59;9.00;;;6.03;;
21326;SDS011;10822;51.532;6.770;2024-01-30T06:34:25;10.70;;;6.55;;
21326;SDS011;10822;51.532;6.770;2024-01-30T06:36:51;7.55;;;5.25;;
21326;SDS011;10822;51.532;6.770;2024-01-30T06:39:17;11.25;;;6.15;;
21326;SDS011;10822;51.532;6.770;2024-01-30T06:41:43;10.68;;;5.70;;
21326;SDS011;10822;51.532;6.770;2024-01-30T06:44:11;11.00;;;6.22;;
21326;SDS011;10822;51.532;6.770;2024-01-30T06:46:38;11.73;;;6.63;;
21326;SDS011;10822;51.532;6.770;2024-01-30T06:49:04;12.90;;;7.15;;
21326;SDS011;10822;51.532;6.770;2024-01-30T06:51:30;10.40;;;6.75;;
21326;SDS011;10822;51.532;6.770;2024-01-30T06:53:56;10.48;;;7.50;;
21326;SDS011;10822;51.532;6.770;2024-01-30T06:56:22;10.63;;;6.47;;
21326;SDS011;10822;51.532;6.770;2024-01-30T06:58:48;8.30;;;5.78;;
21326;SDS011;10822;51.532;6.770;2024-01-30T07:01:15;10.85;;;6.55;;
21326;SDS011;10822;51.532;6.770;2024-01-30T07:03:41;10.57;;;7.13;;
21326;SDS011;10822;51.532;6.770;2024-01-30T07:06:07;10.20;;;7.00;;
21326;SDS011;10822;51.532;6.770;2024-01-30T07:08:33;10.50;;;6.57;;
21326;SDS011;10822;51.532;6.770;2024-01-30T07:10:59;10.70;;;6.20;;
21326;SDS011;10822;51.532;6.770;2024-01-30T07:13:26;10.52;;;6.70;;
21326;SDS011;10822;51.532;6.770;2024-01-30T07:15:52;14.88;;;7.05;;
21326;SDS011;10822;51.532;6.770;2024-01-30T07:18:18;9.85;;;6.72;;
21326;SDS011;10822;51.532;6.770;2024-01-30T07:20:43;11.52;;;6.35;;
21326;SDS011;10822;51.532;6.770;2024-01-30T07:23:14;8.38;;;6.35;;
21326;SDS011;10822;51.532;6.770;2024-01-30T07:25:42;12.43;;;6.68;;
21326;SDS011;10822;51.532;6.770;2024-01-30T07:28:08;11.20;;;6.30;;
21326;SDS011;10822;51.532;6.770;2024-01-30T07:30:35;11.13;;;6.25;;
21326;SDS011;10822;51.532;6.770;2024-01-30T07:33:01;12.43;;;6.28;;
21326;SDS011;10822;51.532;6.770;2024-01-30T07:35:27;9.45;;;5.90;;
21326;SDS011;10822;51.532;6.770;2024-01-30T07:37:53;9.35;;;6.45;;
21326;SDS011;10822;51.532;6.770;2024-01-30T07:40:19;14.00;;;6.55;;
21326;SDS011;10822;51.532;6.770;2024-01-30T07:42:45;10.43;;;6.50;;
21326;SDS011;10822;51.532;6.770;2024-01-30T07:45:11;12.93;;;7.60;;
21326;SDS011;10822;51.532;6.770;2024-01-30T07:47:37;12.30;;;7.43;;
21326;SDS011;10822;51.532;6.770;2024-01-30T07:50:03;12.68;;;6.55;;
21326;SDS011;10822;51.532;6.770;2024-01-30T07:52:29;11.02;;;6.60;;
21326;SDS011;10822;51.532;6.770;2024-01-30T07:54:55;10.43;;;7.00;;
21326;SDS011;10822;51.532;6.770;2024-01-30T07:57:22;10.38;;;6.70;;
21326;SDS011;10822;51.532;6.770;2024-01-30T07:59:48;13.15;;;6.50;;
21326;SDS011;10822;51.532;6.770;2024-01-30T08:02:14;10.52;;;6.47;;
21326;SDS011;10822;51.532;6.770;2024-01-30T08:04:40;12.05;;;6.75;;
21326;SDS011;10822;51.532;6.770;2024-01-30T08:07:06;10.38;;;6.07;;
21326;SDS011;10822;51.532;6.770;2024-01-30T08:09:32;10.82;;;6.55;;
21326;SDS011;10822;51.532;6.770;2024-01-30T08:11:58;10.07;;;6.53;;
21326;SDS011;10822;51.532;6.770;2024-01-30T08:14:24;11.18;;;6.18;;
21326;SDS011;10822;51.532;6.770;2024-01-30T08:16:51;11.05;;;6.40;;
21326;SDS011;10822;51.532;6.770;2024-01-30T08:19:17;10.02;;;6.60;;
21326;SDS011;10822;51.532;6.770;2024-01-30T08:21:43;11.90;;;6.45;;
21326;SDS011;10822;51.532;6.770;2024-01-30T08:24:09;11.07;;;6.28;;
21326;SDS011;10822;51.532;6.770;2024-01-30T08:26:35;10.77;;;6.60;;
21326;SDS011;10822;51.532;6.770;2024-01-30T08:29:02;10.20;;;6.18;;
21326;SDS011;10822;51.532;6.770;2024-01-30T08:31:31;9.18;;;6.50;;
21326;SDS011;10822;51.532;6.770;2024-01-30T08:33:57;11.98;;;6.82;;
21326;SDS011;10822;51.532;6.770;2024-01-30T08:36:23;9.93;;;6.75;;
21326;SDS011;10822;51.532;6.770;2024-01-30T08:38:49;10.27;;;6.32;;
21326;SDS011;10822;51.532;6.770;2024-01-30T08:41:15;11.52;;;6.53;;
21326;SDS011;10822;51.532;6.770;2024-01-30T08:43:41;12.27;;;6.60;;
21326;SDS011;10822;51.532;6.770;2024-01-30T08:46:09;9.77;;;6.80;;
21326;SDS011;10822;51.532;6.770;2024-01-30T08:48:35;11.38;;;6.47;;
21326;SDS011;10822;51.532;6.770;2024-01-30T08:51:01;13.23;;;7.50;;
21326;SDS011;10822;51.532;6.770;2024-01-30T08:53:27;8.55;;;5.78;;
21326;SDS011;10822;51.532;6.770;2024-01-30T08:55:53;11.15;;;7.00;;
21326;SDS011;10822;51.532;6.770;2024-01-30T08:58:19;9.88;;;7.00;;
21326;SDS011;10822;51.532;6.770;2024-01-30T09:00:45;10.65;;;6.75;;
21326;SDS011;10822;51.532;6.770;2024-01-30T09:03:12;12.10;;;6.78;;
21326;SDS011;10822;51.532;6.770;2024-01-30T09:05:38;11.23;;;7.70;;
21326;SDS011;10822;51.532;6.770;2024-01-30T09:08:04;12.63;;;7.30;;
21326;SDS011;10822;51.532;6.770;2024-01-30T09:10:30;11.82;;;7.32;;
21326;SDS011;10822;51.532;6.770;2024-01-30T09:12:56;15.38;;;7.90;;
21326;SDS011;10822;51.532;6.770;2024-01-30T09:15:22;10.05;;;7.13;;
21326;SDS011;10822;51.532;6.770;2024-01-30T09:17:48;11.02;;;7.97;;
21326;SDS011;10822;51.532;6.770;2024-01-30T09:20:14;13.18;;;7.43;;
21326;SDS011;10822;51.532;6.770;2024-01-30T09:22:40;15.73;;;7.82;;
21326;SDS011;10822;51.532;6.770;2024-01-30T09:25:06;16.88;;;8.65;;
21326;SDS011;10822;51.532;6.770;2024-01-30T09:27:32;15.05;;;8.52;;
21326;SDS011;10822;51.532;6.770;2024-01-30T09:29:58;16.85;;;8.20;;
21326;SDS011;10822;51.532;6.770;2024-01-30T09:32:24;15.85;;;8.73;;
21326;SDS011;10822;51.532;6.770;2024-01-30T09:34:50;15.38;;;9.00;;
21326;SDS011;10822;51.532;6.770;2024-01-30T09:37:16;13.48;;;7.88;;
21326;SDS011;10822;51.532;6.770;2024-01-30T09:39:43;12.93;;;8.07;;
21326;SDS011;10822;51.532;6.770;2024-01-30T09:45:07;13.38;;;8.02;;
21326;SDS011;10822;51.532;6.770;2024-01-30T09:47:36;15.27;;;8.07;;
21326;SDS011;10822;51.532;6.770;2024-01-30T09:52:33;10.90;;;7.20;;
21326;SDS011;10822;51.532;6.770;2024-01-30T09:54:59;16.90;;;7.57;;
21326;SDS011;10822;51.532;6.770;2024-01-30T09:57:26;14.68;;;8.15;;
21326;SDS011;10822;51.532;6.770;2024-01-30T09:59:53;12.88;;;7.72;;
21326;SDS011;10822;51.532;6.770;2024-01-30T10:02:20;11.32;;;7.57;;
21326;SDS011;10822;51.532;6.770;2024-01-30T10:04:50;11.90;;;7.50;;
21326;SDS011;10822;51.532;6.770;2024-01-30T10:07:16;15.30;;;8.32;;
21326;SDS011;10822;51.532;6.770;2024-01-30T10:09:42;17.75;;;7.93;;
21326;SDS011;10822;51.532;6.770;2024-01-30T10:12:08;14.18;;;8.50;;
21326;SDS011;10822;51.532;6.770;2024-01-30T10:14:38;17.13;;;8.25;;
21326;SDS011;10822;51.532;6.770;2024-01-30T10:17:04;11.00;;;7.50;;
21326;SDS011;10822;51.532;6.770;2024-01-30T10:19:31;12.27;;;8.35;;
21326;SDS011;10822;51.532;6.770;2024-01-30T10:21:57;15.50;;;7.63;;
21326;SDS011;10822;51.532;6.770;2024-01-30T10:24:26;12.63;;;7.70;;
21326;SDS011;10822;51.532;6.770;2024-01-30T10:26:54;12.95;;;7.53;;
21326;SDS011;10822;51.532;6.770;2024-01-30T10:29:20;14.20;;;8.18;;
21326;SDS011;10822;51.532;6.770;2024-01-30T10:31:56;12.20;;;7.55;;
21326;SDS011;10822;51.532;6.770;2024-01-30T10:34:22;13.32;;;7.78;;
21326;SDS011;10822;51.532;6.770;2024-01-30T10:36:49;12.70;;;7.15;;
21326;SDS011;10822;51.532;6.770;2024-01-30T10:39:16;16.20;;;7.93;;
21326;SDS011;10822;51.532;6.770;2024-01-30T10:41:43;17.25;;;8.07;;
21326;SDS011;10822;51.532;6.770;2024-01-30T10:44:10;13.98;;;8.35;;
21326;SDS011;10822;51.532;6.770;2024-01-30T10:46:37;13.98;;;8.20;;
21326;SDS011;10822;51.532;6.770;2024-01-30T10:49:05;13.52;;;8.38;;
21326;SDS011;10822;51.532;6.770;2024-01-30T10:51:31;14.55;;;8.85;;
21326;SDS011;10822;51.532;6.770;2024-01-30T10:53:57;18.98;;;9.48;;
21326;SDS011;10822;51.532;6.770;2024-01-30T10:56:24;18.67;;;9.27;;
21326;SDS011;10822;51.532;6.770;2024-01-30T10:58:50;17.17;;;9.00;;
21326;SDS011;10822;51.532;6.770;2024-01-30T11:01:21;19.88;;;9.05;;
21326;SDS011;10822;51.532;6.770;2024-01-30T11:03:53;17.88;;;9.00;;
21326;SDS011;10822;51.532;6.770;2024-01-30T11:06:23;14.98;;;8.75;;
21326;SDS011;10822;51.532;6.770;2024-01-30T11:09:05;18.98;;;9.60;;
21326;SDS011;10822;51.532;6.770;2024-01-30T11:11:51;17.13;;;9.60;;
21326;SDS011;10822;51.532;6.770;2024-01-30T11:14:22;21.58;;;9.15;;
21326;SDS011;10822;51.532;6.770;2024-01-30T11:16:49;17.38;;;9.35;;
21326;SDS011;10822;51.532;6.770;2024-01-30T11:19:15;18.48;;;8.90;;
21326;SDS011;10822;51.532;6.770;2024-01-30T11:21:44;15.50;;;8.77;;
21326;SDS011;10822;51.532;6.770;2024-01-30T11:24:09;19.90;;;9.35;;
21326;SDS011;10822;51.532;6.770;2024-01-30T11:26:36;17.67;;;9.35;;
21326;SDS011;10822;51.532;6.770;2024-01-30T11:29:07;15.50;;;7.97;;
21326;SDS011;10822;51.532;6.770;2024-01-30T11:31:34;14.75;;;7.72;;
21326;SDS011;10822;51.532;6.770;2024-01-30T11:34:00;18.17;;;8.98;;
21326;SDS011;10822;51.532;6.770;2024-01-30T11:36:26;14.90;;;8.13;;
21326;SDS011;10822;51.532;6.770;2024-01-30T11:38:52;19.17;;;9.68;;
21326;SDS011;10822;51.532;6.770;2024-01-30T11:41:18;17.05;;;9.02;;
21326;SDS011;10822;51.532;6.770;2024-01-30T11:43:51;14.38;;;8.80;;
21326;SDS011;10822;51.532;6.770;2024-01-30T11:46:17;15.15;;;8.90;;
21326;SDS011;10822;51.532;6.770;2024-01-30T11:48:43;20.48;;;11.02;;
21326;SDS011;10822;51.532;6.770;2024-01-30T11:51:09;14.55;;;8.45;;
21326;SDS011;10822;51.532;6.770;2024-01-30T11:53:35;18.45;;;7.68;;
21326;SDS011;10822;51.532;6.770;2024-01-30T11:56:01;14.13;;;9.40;;
21326;SDS011;10822;51.532;6.770;2024-01-30T11:58:28;17.00;;;9.18;;
21326;SDS011;10822;51.532;6.770;2024-01-30T12:00:55;14.23;;;8.48;;
21326;SDS011;10822;51.532;6.770;2024-01-30T12:03:21;13.57;;;8.35;;
21326;SDS011;10822;51.532;6.770;2024-01-30T12:05:47;16.48;;;9.55;;
21326;SDS011;10822;51.532;6.770;2024-01-30T12:08:20;18.35;;;9.05;;
21326;SDS011;10822;51.532;6.770;2024-01-30T12:10:46;12.00;;;8.02;;
21326;SDS011;10822;51.532;6.770;2024-01-30T12:13:12;13.75;;;8.75;;
21326;SDS011;10822;51.532;6.770;2024-01-30T12:15:38;15.38;;;8.23;;
21326;SDS011;10822;51.532;6.770;2024-01-30T12:18:07;14.88;;;8.50;;
21326;SDS011;10822;51.532;6.770;2024-01-30T12:20:33;15.88;;;8.30;;
21326;SDS011;10822;51.532;6.770;2024-01-30T12:22:59;16.13;;;8.90;;
21326;SDS011;10822;51.532;6.770;2024-01-30T12:25:25;15.35;;;8.70;;
21326;SDS011;10822;51.532;6.770;2024-01-30T12:27:52;16.13;;;8.18;;
21326;SDS011;10822;51.532;6.770;2024-01-30T12:30:20;16.70;;;8.93;;
21326;SDS011;10822;51.532;6.770;2024-01-30T12:32:46;18.05;;;9.23;;
21326;SDS011;10822;51.532;6.770;2024-01-30T12:35:13;16.15;;;8.85;;
21326;SDS011;10822;51.532;6.770;2024-01-30T12:37:40;13.43;;;7.80;;
21326;SDS011;10822;51.532;6.770;2024-01-30T12:40:09;15.27;;;8.80;;
21326;SDS011;10822;51.532;6.770;2024-01-30T12:42:36;15.77;;;8.25;;
21326;SDS011;10822;51.532;6.770;2024-01-30T12:45:02;16.95;;;8.20;;
21326;SDS011;10822;51.532;6.770;2024-01-30T12:47:29;16.02;;;8.25;;
21326;SDS011;10822;51.532;6.770;2024-01-30T12:49:55;12.98;;;8.45;;
21326;SDS011;10822;51.532;6.770;2024-01-30T12:52:21;15.18;;;8.93;;
21326;SDS011;10822;51.532;6.770;2024-01-30T12:54:50;16.30;;;8.60;;
21326;SDS011;10822;51.532;6.770;2024-01-30T12:57:17;15.52;;;8.60;;
21326;SDS011;10822;51.532;6.770;2024-01-30T12:59:44;16.85;;;8.02;;
21326;SDS011;10822;51.532;6.770;2024-01-30T13:02:10;16.10;;;7.68;;
21326;SDS011;10822;51.532;6.770;2024-01-30T13:04:36;14.52;;;8.25;;
21326;SDS011;10822;51.532;6.770;2024-01-30T13:07:02;15.23;;;8.35;;
21326;SDS011;10822;51.532;6.770;2024-01-30T13:09:29;12.75;;;7.53;;
21326;SDS011;10822;51.532;6.770;2024-01-30T13:11:56;14.13;;;7.95;;
21326;SDS011;10822;51.532;6.770;2024-01-30T13:14:22;14.70;;;7.47;;
21326;SDS011;10822;51.532;6.770;2024-01-30T13:16:48;16.55;;;7.75;;
21326;SDS011;10822;51.532;6.770;2024-01-30T13:19:14;13.98;;;7.90;;
21326;SDS011;10822;51.532;6.770;2024-01-30T13:21:41;18.15;;;8.13;;
21326;SDS011;10822;51.532;6.770;2024-01-30T13:24:07;11.38;;;7.05;;
21326;SDS011;10822;51.532;6.770;2024-01-30T13:26:33;12.18;;;7.03;;
21326;SDS011;10822;51.532;6.770;2024-01-30T13:28:59;14.23;;;7.10;;
21326;SDS011;10822;51.532;6.770;2024-01-30T13:31:25;10.93;;;6.57;;
21326;SDS011;10822;51.532;6.770;2024-01-30T13:33:52;10.85;;;6.10;;
21326;SDS011;10822;51.532;6.770;2024-01-30T13:36:18;10.05;;;6.60;;
21326;SDS011;10822;51.532;6.770;2024-01-30T13:38:44;10.57;;;6.70;;
21326;SDS011;10822;51.532;6.770;2024-01-30T13:41:10;9.82;;;6.57;;
21326;SDS011;10822;51.532;6.770;2024-01-30T13:43:36;15.25;;;7.03;;
21326;SDS011;10822;51.532;6.770;2024-01-30T13:46:02;13.20;;;6.75;;
21326;SDS011;10822;51.532;6.770;2024-01-30T13:48:28;15.77;;;7.10;;
21326;SDS011;10822;51.532;6.770;2024-01-30T13:50:54;13.32;;;6.47;;
21326;SDS011;10822;51.532;6.770;2024-01-30T13:53:21;10.18;;;6.80;;
21326;SDS011;10822;51.532;6.770;2024-01-30T13:55:47;10.93;;;6.10;;
21326;SDS011;10822;51.532;6.770;2024-01-30T13:58:13;10.52;;;5.93;;
21326;SDS011;10822;51.532;6.770;2024-01-30T14:00:39;9.80;;;6.30;;
21326;SDS011;10822;51.532;6.770;2024-01-30T14:03:05;11.80;;;6.05;;
21326;SDS011;10822;51.532;6.770;2024-01-30T14:05:31;12.52;;;6.25;;
21326;SDS011;10822;51.532;6.770;2024-01-30T14:07:57;12.10;;;6.38;;
21326;SDS011;10822;51.532;6.770;2024-01-30T14:10:23;12.60;;;6.43;;
21326;SDS011;10822;51.532;6.770;2024-01-30T14:12:49;9.10;;;5.32;;
21326;SDS011;10822;51.532;6.770;2024-01-30T14:15:15;10.82;;;6.40;;
21326;SDS011;10822;51.532;6.770;2024-01-30T14:17:44;11.13;;;6.50;;
21326;SDS011;10822;51.532;6.770;2024-01-30T14:20:13;10.23;;;6.30;;
21326;SDS011;10822;51.532;6.770;2024-01-30T14:22:39;13.18;;;5.90;;
21326;SDS011;10822;51.532;6.770;2024-01-30T14:25:05;11.85;;;6.10;;
21326;SDS011;10822;51.532;6.770;2024-01-30T14:27:31;11.88;;;6.43;;
21326;SDS011;10822;51.532;6.770;2024-01-30T14:29:58;10.75;;;6.10;;
21326;SDS011;10822;51.532;6.770;2024-01-30T14:32:24;12.85;;;6.28;;
21326;SDS011;10822;51.532;6.770;2024-01-30T14:34:50;13.27;;;5.25;;
21326;SDS011;10822;51.532;6.770;2024-01-30T14:37:17;10.32;;;4.85;;